sensor_id;sensor_type;location;lat;lon;timestamp;temperature;humidity
69009;SHT31;56065;52.472;13.380;2023-06-01T00:02:23;18.57;60.42
69009;SHT31;56065;52.472;13.380;2023-06-01T00:04:48;18.52;60.73
69009;SHT31;56065;52.472;13.380;2023-06-01T00:07:15;18.47;60.71
69009;SHT31;56065;52.472;13.380;2023-06-01T00:09:41;18.46;61.05
69009;SHT31;56065;52.472;13.380;2023-06-01T00:12:07;18.47;60.84
69009;SHT31;56065;52.472;13.380;2023-06-01T00:14:36;18.46;61.19
69009;SHT31;56065;52.472;13.380;2023-06-01T00:17:02;18.46;61.21
69009;SHT31;56065;52.472;13.380;2023-06-01T00:19:28;18.45;61.31
69009;SHT31;56065;52.472;13.380;2023-06-01T00:21:54;18.39;61.26
69009;SHT31;56065;52.472;13.380;2023-06-01T00:24:21;18.37;61.23
69009;SHT31;56065;52.472;13.380;2023-06-01T00:26:47;18.35;61.51
69009;SHT31;56065;52.472;13.380;2023-06-01T00:29:12;18.29;62.24
69009;SHT31;56065;52.472;13.380;2023-06-01T00:31:38;18.28;61.96
69009;SHT31;56065;52.472;13.380;2023-06-01T00:34:03;18.26;61.95
69009;SHT31;56065;52.472;13.380;2023-06-01T00:36:29;18.22;62.64
69009;SHT31;56065;52.472;13.380;2023-06-01T00:38:54;18.21;62.20
69009;SHT31;56065;52.472;13.380;2023-06-01T00:41:27;18.15;62.55
69009;SHT31;56065;52.472;13.380;2023-06-01T00:43:52;18.12;62.47
69009;SHT31;56065;52.472;13.380;2023-06-01T00:46:17;18.08;62.69
69009;SHT31;56065;52.472;13.380;2023-06-01T00:48:43;18.06;62.67
69009;SHT31;56065;52.472;13.380;2023-06-01T00:51:08;18.01;63.12
69009;SHT31;56065;52.472;13.380;2023-06-01T00:53:34;18.01;63.61
69009;SHT31;56065;52.472;13.380;2023-06-01T00:55:59;17.96;63.85
69009;SHT31;56065;52.472;13.380;2023-06-01T00:58:25;17.92;63.75
69009;SHT31;56065;52.472;13.380;2023-06-01T01:00:50;17.92;63.86
69009;SHT31;56065;52.472;13.380;2023-06-01T01:03:19;17.91;63.62
69009;SHT31;56065;52.472;13.380;2023-06-01T01:05:46;17.84;64.46
69009;SHT31;56065;52.472;13.380;2023-06-01T01:08:18;17.85;64.19
69009;SHT31;56065;52.472;13.380;2023-06-01T01:10:55;17.81;64.48
69009;SHT31;56065;52.472;13.380;2023-06-01T01:16:30;17.77;64.73
69009;SHT31;56065;52.472;13.380;2023-06-01T01:21:32;17.73;64.89
69009;SHT31;56065;52.472;13.380;2023-06-01T01:29:14;17.65;65.22
69009;SHT31;56065;52.472;13.380;2023-06-01T01:31:40;17.65;65.19
69009;SHT31;56065;52.472;13.380;2023-06-01T01:34:07;17.63;65.66
69009;SHT31;56065;52.472;13.380;2023-06-01T01:36:33;17.58;65.58
69009;SHT31;56065;52.472;13.380;2023-06-01T01:38:59;17.60;65.57
69009;SHT31;56065;52.472;13.380;2023-06-01T01:41:24;17.53;66.08
69009;SHT31;56065;52.472;13.380;2023-06-01T01:43:51;17.47;66.34
69009;SHT31;56065;52.472;13.380;2023-06-01T01:46:25;17.43;66.28
69009;SHT31;56065;52.472;13.380;2023-06-01T01:51:56;17.27;66.69
69009;SHT31;56065;52.472;13.380;2023-06-01T01:54:24;17.23;66.67
69009;SHT31;56065;52.472;13.380;2023-06-01T01:56:50;17.16;67.05
69009;SHT31;56065;52.472;13.380;2023-06-01T01:59:17;17.12;67.19
69009;SHT31;56065;52.472;13.380;2023-06-01T02:01:43;17.09;67.54
69009;SHT31;56065;52.472;13.380;2023-06-01T02:04:10;17.03;67.57
69009;SHT31;56065;52.472;13.380;2023-06-01T02:06:36;16.97;67.93
69009;SHT31;56065;52.472;13.380;2023-06-01T02:09:03;16.92;67.78
69009;SHT31;56065;52.472;13.380;2023-06-01T02:11:31;16.82;68.74
69009;SHT31;56065;52.472;13.380;2023-06-01T02:13:57;16.79;68.78
69009;SHT31;56065;52.472;13.380;2023-06-01T02:16:22;16.73;68.99
69009;SHT31;56065;52.472;13.380;2023-06-01T02:18:47;16.69;68.86
69009;SHT31;56065;52.472;13.380;2023-06-01T02:21:13;16.62;69.39
69009;SHT31;56065;52.472;13.380;2023-06-01T02:23:39;16.52;69.70
69009;SHT31;56065;52.472;13.380;2023-06-01T02:26:05;16.45;69.84
69009;SHT31;56065;52.472;13.380;2023-06-01T02:28:31;16.42;69.72
69009;SHT31;56065;52.472;13.380;2023-06-01T02:30:56;16.36;70.17
69009;SHT31;56065;52.472;13.380;2023-06-01T02:33:21;16.25;70.78
69009;SHT31;56065;52.472;13.380;2023-06-01T02:35:50;16.21;70.55
69009;SHT31;56065;52.472;13.380;2023-06-01T02:38:15;16.17;71.00
69009;SHT31;56065;52.472;13.380;2023-06-01T02:40:40;16.11;71.47
69009;SHT31;56065;52.472;13.380;2023-06-01T02:43:06;16.11;71.56
69009;SHT31;56065;52.472;13.380;2023-06-01T02:45:31;16.08;71.20
69009;SHT31;56065;52.472;13.380;2023-06-01T02:47:56;16.05;71.84
69009;SHT31;56065;52.472;13.380;2023-06-01T02:50:22;16.00;71.94
69009;SHT31;56065;52.472;13.380;2023-06-01T02:52:47;16.00;71.86
69009;SHT31;56065;52.472;13.380;2023-06-01T02:55:13;15.98;72.15
69009;SHT31;56065;52.472;13.380;2023-06-01T02:57:38;15.98;72.20
69009;SHT31;56065;52.472;13.380;2023-06-01T03:00:04;15.91;72.53
69009;SHT31;56065;52.472;13.380;2023-06-01T03:02:49;15.90;72.46
69009;SHT31;56065;52.472;13.380;2023-06-01T03:05:15;15.93;72.76
69009;SHT31;56065;52.472;13.380;2023-06-01T03:07:45;15.90;72.68
69009;SHT31;56065;52.472;13.380;2023-06-01T03:10:11;15.90;72.72
69009;SHT31;56065;52.472;13.380;2023-06-01T03:12:37;15.83;73.16
69009;SHT31;56065;52.472;13.380;2023-06-01T03:15:03;15.77;73.57
69009;SHT31;56065;52.472;13.380;2023-06-01T03:17:30;15.77;73.79
69009;SHT31;56065;52.472;13.380;2023-06-01T03:19:57;15.71;73.83
69009;SHT31;56065;52.472;13.380;2023-06-01T03:22:22;15.77;73.69
69009;SHT31;56065;52.472;13.380;2023-06-01T03:24:47;15.77;73.86
69009;SHT31;56065;52.472;13.380;2023-06-01T03:27:16;15.76;73.87
69009;SHT31;56065;52.472;13.380;2023-06-01T03:29:41;15.77;73.98
69009;SHT31;56065;52.472;13.380;2023-06-01T03:32:07;15.70;74.36
69009;SHT31;56065;52.472;13.380;2023-06-01T03:34:32;15.66;74.54
69009;SHT31;56065;52.472;13.380;2023-06-01T03:37:01;15.63;74.36
69009;SHT31;56065;52.472;13.380;2023-06-01T03:39:30;15.62;74.62
69009;SHT31;56065;52.472;13.380;2023-06-01T03:41:58;15.59;74.68
69009;SHT31;56065;52.472;13.380;2023-06-01T03:44:23;15.55;75.12
69009;SHT31;56065;52.472;13.380;2023-06-01T03:46:49;15.42;75.59
69009;SHT31;56065;52.472;13.380;2023-06-01T03:49:14;15.36;75.84
69009;SHT31;56065;52.472;13.380;2023-06-01T03:51:40;15.38;75.49
69009;SHT31;56065;52.472;13.380;2023-06-01T03:54:06;15.38;75.66
69009;SHT31;56065;52.472;13.380;2023-06-01T03:56:31;15.32;75.87
69009;SHT31;56065;52.472;13.380;2023-06-01T03:58:57;15.31;75.61
69009;SHT31;56065;52.472;13.380;2023-06-01T04:01:23;15.26;76.18
69009;SHT31;56065;52.472;13.380;2023-06-01T04:03:48;15.16;76.39
69009;SHT31;56065;52.472;13.380;2023-06-01T04:06:14;15.16;76.46
69009;SHT31;56065;52.472;13.380;2023-06-01T04:08:43;15.11;76.83
69009;SHT31;56065;52.472;13.380;2023-06-01T04:11:17;15.06;76.98
69009;SHT31;56065;52.472;13.380;2023-06-01T04:13:43;15.06;76.93
69009;SHT31;56065;52.472;13.380;2023-06-01T04:16:09;15.05;77.01
69009;SHT31;56065;52.472;13.380;2023-06-01T04:18:35;15.05;76.86
69009;SHT31;56065;52.472;13.380;2023-06-01T04:21:00;14.99;77.23
69009;SHT31;56065;52.472;13.380;2023-06-01T04:23:26;15.02;77.06
69009;SHT31;56065;52.472;13.380;2023-06-01T04:25:51;15.02;77.25
69009;SHT31;56065;52.472;13.380;2023-06-01T04:28:17;15.05;77.35
69009;SHT31;56065;52.472;13.380;2023-06-01T04:30:43;15.08;77.52
69009;SHT31;56065;52.472;13.380;2023-06-01T04:33:09;15.19;77.20
69009;SHT31;56065;52.472;13.380;2023-06-01T04:35:35;15.38;76.91
69009;SHT31;56065;52.472;13.380;2023-06-01T04:38:02;15.43;76.46
69009;SHT31;56065;52.472;13.380;2023-06-01T04:40:27;15.56;76.28
69009;SHT31;56065;52.472;13.380;2023-06-01T04:42:53;15.63;76.22
69009;SHT31;56065;52.472;13.380;2023-06-01T04:45:23;15.63;76.16
69009;SHT31;56065;52.472;13.380;2023-06-01T04:47:49;15.70;75.95
69009;SHT31;56065;52.472;13.380;2023-06-01T04:50:15;15.76;75.83
69009;SHT31;56065;52.472;13.380;2023-06-01T04:52:42;15.71;75.80
69009;SHT31;56065;52.472;13.380;2023-06-01T04:55:09;15.76;75.75
69009;SHT31;56065;52.472;13.380;2023-06-01T04:57:35;15.76;75.70
69009;SHT31;56065;52.472;13.380;2023-06-01T05:00:02;15.70;75.71
69009;SHT31;56065;52.472;13.380;2023-06-01T05:02:29;15.77;75.59
69009;SHT31;56065;52.472;13.380;2023-06-01T05:04:54;15.73;75.80
69009;SHT31;56065;52.472;13.380;2023-06-01T05:07:20;15.74;75.64
69009;SHT31;56065;52.472;13.380;2023-06-01T05:09:46;15.79;75.64
69009;SHT31;56065;52.472;13.380;2023-06-01T05:12:12;15.46;76.38
69009;SHT31;56065;52.472;13.380;2023-06-01T05:14:37;15.46;76.54
69009;SHT31;56065;52.472;13.380;2023-06-01T05:17:03;15.45;76.42
69009;SHT31;56065;52.472;13.380;2023-06-01T05:19:28;15.39;76.70
69009;SHT31;56065;52.472;13.380;2023-06-01T05:21:53;15.26;76.79
69009;SHT31;56065;52.472;13.380;2023-06-01T05:24:19;15.32;76.63
69009;SHT31;56065;52.472;13.380;2023-06-01T05:26:44;15.32;76.34
69009;SHT31;56065;52.472;13.380;2023-06-01T05:29:10;15.34;76.41
69009;SHT31;56065;52.472;13.380;2023-06-01T05:31:36;15.29;76.55
69009;SHT31;56065;52.472;13.380;2023-06-01T05:34:01;15.34;76.35
69009;SHT31;56065;52.472;13.380;2023-06-01T05:36:27;15.38;76.50
69009;SHT31;56065;52.472;13.380;2023-06-01T05:38:52;15.49;76.05
69009;SHT31;56065;52.472;13.380;2023-06-01T05:41:18;15.50;76.06
69009;SHT31;56065;52.472;13.380;2023-06-01T05:43:43;15.60;75.65
69009;SHT31;56065;52.472;13.380;2023-06-01T05:46:08;15.60;75.70
69009;SHT31;56065;52.472;13.380;2023-06-01T05:48:34;15.57;75.82
69009;SHT31;56065;52.472;13.380;2023-06-01T05:50:59;15.74;75.37
69009;SHT31;56065;52.472;13.380;2023-06-01T05:53:25;15.86;75.25
69009;SHT31;56065;52.472;13.380;2023-06-01T05:55:53;16.05;74.35
69009;SHT31;56065;52.472;13.380;2023-06-01T05:58:18;16.13;73.81
69009;SHT31;56065;52.472;13.380;2023-06-01T06:00:44;16.10;74.34
69009;SHT31;56065;52.472;13.380;2023-06-01T06:03:09;16.29;73.37
69009;SHT31;56065;52.472;13.380;2023-06-01T06:05:35;16.28;73.08
69009;SHT31;56065;52.472;13.380;2023-06-01T06:08:00;16.25;72.73
69009;SHT31;56065;52.472;13.380;2023-06-01T06:10:26;16.13;72.31
69009;SHT31;56065;52.472;13.380;2023-06-01T06:12:51;16.00;72.79
69009;SHT31;56065;52.472;13.380;2023-06-01T06:15:17;16.00;72.58
69009;SHT31;56065;52.472;13.380;2023-06-01T06:17:43;16.25;72.57
69009;SHT31;56065;52.472;13.380;2023-06-01T06:20:09;16.51;72.13
69009;SHT31;56065;52.472;13.380;2023-06-01T06:22:35;16.69;71.22
69009;SHT31;56065;52.472;13.380;2023-06-01T06:25:01;16.96;70.62
69009;SHT31;56065;52.472;13.380;2023-06-01T06:27:27;17.15;69.64
69009;SHT31;56065;52.472;13.380;2023-06-01T06:29:52;17.64;69.18
69009;SHT31;56065;52.472;13.380;2023-06-01T06:32:17;17.77;67.87
69009;SHT31;56065;52.472;13.380;2023-06-01T06:34:45;17.82;67.36
69009;SHT31;56065;52.472;13.380;2023-06-01T06:37:10;17.96;67.11
69009;SHT31;56065;52.472;13.380;2023-06-01T06:39:36;18.43;66.09
69009;SHT31;56065;52.472;13.380;2023-06-01T06:42:03;18.95;65.26
69009;SHT31;56065;52.472;13.380;2023-06-01T06:44:29;19.35;63.65
69009;SHT31;56065;52.472;13.380;2023-06-01T06:46:54;19.65;63.05
69009;SHT31;56065;52.472;13.380;2023-06-01T06:49:19;19.58;62.82
69009;SHT31;56065;52.472;13.380;2023-06-01T06:51:45;19.44;62.77
69009;SHT31;56065;52.472;13.380;2023-06-01T06:54:11;19.45;62.85
69009;SHT31;56065;52.472;13.380;2023-06-01T06:56:36;19.29;62.51
69009;SHT31;56065;52.472;13.380;2023-06-01T06:59:02;19.49;62.38
69009;SHT31;56065;52.472;13.380;2023-06-01T07:01:27;19.35;62.12
69009;SHT31;56065;52.472;13.380;2023-06-01T07:03:53;19.32;62.06
69009;SHT31;56065;52.472;13.380;2023-06-01T07:06:20;19.52;61.89
69009;SHT31;56065;52.472;13.380;2023-06-01T07:08:46;20.16;61.44
69009;SHT31;56065;52.472;13.380;2023-06-01T07:11:11;21.42;59.26
69009;SHT31;56065;52.472;13.380;2023-06-01T07:13:36;21.73;58.05
69009;SHT31;56065;52.472;13.380;2023-06-01T07:16:03;21.93;57.40
69009;SHT31;56065;52.472;13.380;2023-06-01T07:18:29;21.81;56.46
69009;SHT31;56065;52.472;13.380;2023-06-01T07:20:55;21.95;57.19
69009;SHT31;56065;52.472;13.380;2023-06-01T07:23:20;21.87;56.58
69009;SHT31;56065;52.472;13.380;2023-06-01T07:25:46;22.18;56.48
69009;SHT31;56065;52.472;13.380;2023-06-01T07:28:11;22.60;55.41
69009;SHT31;56065;52.472;13.380;2023-06-01T07:30:37;23.03;54.78
69009;SHT31;56065;52.472;13.380;2023-06-01T07:33:02;23.10;54.19
69009;SHT31;56065;52.472;13.380;2023-06-01T07:35:30;22.75;53.95
69009;SHT31;56065;52.472;13.380;2023-06-01T07:37:57;22.79;54.22
69009;SHT31;56065;52.472;13.380;2023-06-01T07:40:23;22.32;54.71
69009;SHT31;56065;52.472;13.380;2023-06-01T07:42:48;22.56;54.95
69009;SHT31;56065;52.472;13.380;2023-06-01T07:45:13;22.25;54.46
69009;SHT31;56065;52.472;13.380;2023-06-01T07:47:39;22.69;54.11
69009;SHT31;56065;52.472;13.380;2023-06-01T07:50:05;23.68;53.18
69009;SHT31;56065;52.472;13.380;2023-06-01T07:52:30;25.15;51.66
69009;SHT31;56065;52.472;13.380;2023-06-01T07:54:56;26.31;48.87
69009;SHT31;56065;52.472;13.380;2023-06-01T07:57:22;27.09;46.70
69009;SHT31;56065;52.472;13.380;2023-06-01T07:59:48;28.41;45.79
69009;SHT31;56065;52.472;13.380;2023-06-01T08:02:14;28.67;44.81
69009;SHT31;56065;52.472;13.380;2023-06-01T08:04:39;29.31;43.82
69009;SHT31;56065;52.472;13.380;2023-06-01T08:07:05;29.88;43.14
69009;SHT31;56065;52.472;13.380;2023-06-01T08:09:32;30.46;42.15
69009;SHT31;56065;52.472;13.380;2023-06-01T08:11:58;30.59;41.00
69009;SHT31;56065;52.472;13.380;2023-06-01T08:14:23;31.01;41.31
69009;SHT31;56065;52.472;13.380;2023-06-01T08:16:49;30.85;40.95
69009;SHT31;56065;52.472;13.380;2023-06-01T08:19:16;30.87;40.44
69009;SHT31;56065;52.472;13.380;2023-06-01T08:21:41;31.01;40.30
69009;SHT31;56065;52.472;13.380;2023-06-01T08:24:07;31.11;39.87
69009;SHT31;56065;52.472;13.380;2023-06-01T08:26:36;31.73;39.79
69009;SHT31;56065;52.472;13.380;2023-06-01T08:29:01;31.79;39.22
69009;SHT31;56065;52.472;13.380;2023-06-01T08:31:27;31.41;39.34
69009;SHT31;56065;52.472;13.380;2023-06-01T08:33:52;31.59;39.65
69009;SHT31;56065;52.472;13.380;2023-06-01T08:36:19;30.83;40.12
69009;SHT31;56065;52.472;13.380;2023-06-01T08:38:45;31.76;39.57
69009;SHT31;56065;52.472;13.380;2023-06-01T08:41:35;31.65;38.96
69009;SHT31;56065;52.472;13.380;2023-06-01T08:44:03;32.31;38.80
69009;SHT31;56065;52.472;13.380;2023-06-01T08:46:31;32.31;38.41
69009;SHT31;56065;52.472;13.380;2023-06-01T08:48:58;31.08;39.28
69009;SHT31;56065;52.472;13.380;2023-06-01T08:51:24;31.87;38.98
69009;SHT31;56065;52.472;13.380;2023-06-01T08:53:50;31.62;39.37
69009;SHT31;56065;52.472;13.380;2023-06-01T08:56:16;31.10;39.63
69009;SHT31;56065;52.472;13.380;2023-06-01T08:58:43;32.10;38.91
69009;SHT31;56065;52.472;13.380;2023-06-01T09:01:09;31.83;39.03
69009;SHT31;56065;52.472;13.380;2023-06-01T09:03:36;32.68;38.32
69009;SHT31;56065;52.472;13.380;2023-06-01T09:06:02;33.25;38.31
69009;SHT31;56065;52.472;13.380;2023-06-01T09:08:29;33.59;37.57
69009;SHT31;56065;52.472;13.380;2023-06-01T09:10:54;33.77;37.30
69009;SHT31;56065;52.472;13.380;2023-06-01T09:13:39;34.05;36.34
69009;SHT31;56065;52.472;13.380;2023-06-01T09:16:05;34.51;35.92
69009;SHT31;56065;52.472;13.380;2023-06-01T09:18:31;34.92;35.83
69009;SHT31;56065;52.472;13.380;2023-06-01T09:21:15;34.98;35.61
69009;SHT31;56065;52.472;13.380;2023-06-01T09:23:40;34.86;35.35
69009;SHT31;56065;52.472;13.380;2023-06-01T09:26:11;34.59;35.24
69009;SHT31;56065;52.472;13.380;2023-06-01T09:31:43;35.33;35.12
69009;SHT31;56065;52.472;13.380;2023-06-01T09:34:12;34.85;34.77
69009;SHT31;56065;52.472;13.380;2023-06-01T09:36:40;34.90;35.17
69009;SHT31;56065;52.472;13.380;2023-06-01T09:39:08;34.71;35.41
69009;SHT31;56065;52.472;13.380;2023-06-01T09:41:49;34.93;35.45
69009;SHT31;56065;52.472;13.380;2023-06-01T09:46:53;34.85;35.30
69009;SHT31;56065;52.472;13.380;2023-06-01T09:49:24;35.85;35.38
69009;SHT31;56065;52.472;13.380;2023-06-01T09:52:14;36.69;34.95
69009;SHT31;56065;52.472;13.380;2023-06-01T09:54:44;36.40;33.73
69009;SHT31;56065;52.472;13.380;2023-06-01T09:57:11;36.43;34.11
69009;SHT31;56065;52.472;13.380;2023-06-01T09:59:44;36.21;34.47
69009;SHT31;56065;52.472;13.380;2023-06-01T10:02:12;36.62;34.07
69009;SHT31;56065;52.472;13.380;2023-06-01T10:04:40;36.76;34.14
69009;SHT31;56065;52.472;13.380;2023-06-01T10:07:06;36.50;34.33
69009;SHT31;56065;52.472;13.380;2023-06-01T10:09:33;36.63;33.70
69009;SHT31;56065;52.472;13.380;2023-06-01T10:12:01;37.03;33.30
69009;SHT31;56065;52.472;13.380;2023-06-01T10:14:26;36.55;33.88
69009;SHT31;56065;52.472;13.380;2023-06-01T10:16:52;36.93;33.36
69009;SHT31;56065;52.472;13.380;2023-06-01T10:19:20;35.82;33.52
69009;SHT31;56065;52.472;13.380;2023-06-01T10:21:46;36.28;33.82
69009;SHT31;56065;52.472;13.380;2023-06-01T10:24:16;35.99;33.77
69009;SHT31;56065;52.472;13.380;2023-06-01T10:26:48;36.59;33.79
69009;SHT31;56065;52.472;13.380;2023-06-01T10:29:18;36.79;33.07
69009;SHT31;56065;52.472;13.380;2023-06-01T10:31:43;37.40;32.73
69009;SHT31;56065;52.472;13.380;2023-06-01T10:34:10;37.49;32.50
69009;SHT31;56065;52.472;13.380;2023-06-01T10:39:23;37.35;32.90
69009;SHT31;56065;52.472;13.380;2023-06-01T10:41:53;37.90;32.72
69009;SHT31;56065;52.472;13.380;2023-06-01T10:47:03;37.89;32.52
69009;SHT31;56065;52.472;13.380;2023-06-01T10:52:35;37.53;32.52
69009;SHT31;56065;52.472;13.380;2023-06-01T10:57:40;37.17;33.50
69009;SHT31;56065;52.472;13.380;2023-06-01T11:00:17;37.26;33.21
69009;SHT31;56065;52.472;13.380;2023-06-01T11:05:38;37.71;32.41
69009;SHT31;56065;52.472;13.380;2023-06-01T11:08:06;37.86;33.00
69009;SHT31;56065;52.472;13.380;2023-06-01T11:11:05;36.84;33.54
69009;SHT31;56065;52.472;13.380;2023-06-01T11:16:26;36.91;33.61
69009;SHT31;56065;52.472;13.380;2023-06-01T11:18:53;34.95;35.09
69009;SHT31;56065;52.472;13.380;2023-06-01T11:21:32;34.92;35.46
69009;SHT31;56065;52.472;13.380;2023-06-01T11:24:04;35.85;34.27
69009;SHT31;56065;52.472;13.380;2023-06-01T11:26:34;36.69;34.28
69009;SHT31;56065;52.472;13.380;2023-06-01T11:29:21;37.40;33.54
69009;SHT31;56065;52.472;13.380;2023-06-01T11:31:55;36.82;33.85
69009;SHT31;56065;52.472;13.380;2023-06-01T11:34:33;36.36;33.94
69009;SHT31;56065;52.472;13.380;2023-06-01T11:37:04;36.66;33.34
69009;SHT31;56065;52.472;13.380;2023-06-01T11:39:30;36.96;33.97
69009;SHT31;56065;52.472;13.380;2023-06-01T11:42:12;37.23;33.05
69009;SHT31;56065;52.472;13.380;2023-06-01T11:44:40;37.30;33.77
69009;SHT31;56065;52.472;13.380;2023-06-01T11:47:07;37.49;33.71
69009;SHT31;56065;52.472;13.380;2023-06-01T11:49:44;37.72;33.48
69009;SHT31;56065;52.472;13.380;2023-06-01T11:52:10;38.11;32.87
69009;SHT31;56065;52.472;13.380;2023-06-01T11:54:35;38.15;32.67
69009;SHT31;56065;52.472;13.380;2023-06-01T11:57:02;38.16;33.05
69009;SHT31;56065;52.472;13.380;2023-06-01T11:59:36;38.02;32.75
69009;SHT31;56065;52.472;13.380;2023-06-01T12:02:02;37.69;33.44
69009;SHT31;56065;52.472;13.380;2023-06-01T12:04:27;38.11;33.55
69009;SHT31;56065;52.472;13.380;2023-06-01T12:07:03;37.23;33.38
69009;SHT31;56065;52.472;13.380;2023-06-01T12:09:30;37.58;33.86
69009;SHT31;56065;52.472;13.380;2023-06-01T12:11:56;37.13;33.89
69009;SHT31;56065;52.472;13.380;2023-06-01T12:14:22;37.35;34.11
69009;SHT31;56065;52.472;13.380;2023-06-01T12:16:58;37.16;33.68
69009;SHT31;56065;52.472;13.380;2023-06-01T12:19:25;36.09;33.90
69009;SHT31;56065;52.472;13.380;2023-06-01T12:21:52;36.32;33.56
69009;SHT31;56065;52.472;13.380;2023-06-01T12:24:26;36.33;33.37
69009;SHT31;56065;52.472;13.380;2023-06-01T12:26:53;36.65;33.60
69009;SHT31;56065;52.472;13.380;2023-06-01T12:29:40;36.94;33.65
69009;SHT31;56065;52.472;13.380;2023-06-01T12:32:11;37.06;33.50
69009;SHT31;56065;52.472;13.380;2023-06-01T12:34:38;36.31;33.88
69009;SHT31;56065;52.472;13.380;2023-06-01T12:37:17;36.08;33.61
69009;SHT31;56065;52.472;13.380;2023-06-01T12:39:43;35.51;34.67
69009;SHT31;56065;52.472;13.380;2023-06-01T12:42:10;35.77;34.81
69009;SHT31;56065;52.472;13.380;2023-06-01T12:44:37;36.18;34.39
69009;SHT31;56065;52.472;13.380;2023-06-01T12:47:03;33.89;35.35
69009;SHT31;56065;52.472;13.380;2023-06-01T12:49:29;34.28;36.02
69009;SHT31;56065;52.472;13.380;2023-06-01T12:51:55;35.06;35.19
69009;SHT31;56065;52.472;13.380;2023-06-01T12:54:20;34.62;35.34
69009;SHT31;56065;52.472;13.380;2023-06-01T12:56:50;35.43;35.35
69009;SHT31;56065;52.472;13.380;2023-06-01T12:59:29;35.74;34.86
69009;SHT31;56065;52.472;13.380;2023-06-01T13:01:54;35.51;35.04
69009;SHT31;56065;52.472;13.380;2023-06-01T13:04:20;35.77;35.08
69009;SHT31;56065;52.472;13.380;2023-06-01T13:06:46;35.78;34.78
69009;SHT31;56065;52.472;13.380;2023-06-01T13:09:11;35.06;35.21
69009;SHT31;56065;52.472;13.380;2023-06-01T13:11:37;34.62;35.79
69009;SHT31;56065;52.472;13.380;2023-06-01T13:14:02;34.42;35.97
69009;SHT31;56065;52.472;13.380;2023-06-01T13:16:27;34.95;35.47
69009;SHT31;56065;52.472;13.380;2023-06-01T13:18:53;35.64;34.57
69009;SHT31;56065;52.472;13.380;2023-06-01T13:21:18;35.06;34.80
69009;SHT31;56065;52.472;13.380;2023-06-01T13:23:44;35.34;34.93
69009;SHT31;56065;52.472;13.380;2023-06-01T13:26:10;34.18;36.02
69009;SHT31;56065;52.472;13.380;2023-06-01T13:28:35;33.77;36.24
69009;SHT31;56065;52.472;13.380;2023-06-01T13:31:01;34.02;36.32
69009;SHT31;56065;52.472;13.380;2023-06-01T13:33:27;34.59;35.60
69009;SHT31;56065;52.472;13.380;2023-06-01T13:35:52;34.32;35.83
69009;SHT31;56065;52.472;13.380;2023-06-01T13:38:18;34.55;36.08
69009;SHT31;56065;52.472;13.380;2023-06-01T13:40:43;34.47;36.48
69009;SHT31;56065;52.472;13.380;2023-06-01T13:43:09;34.34;36.25
69009;SHT31;56065;52.472;13.380;2023-06-01T13:45:34;34.68;36.55
69009;SHT31;56065;52.472;13.380;2023-06-01T13:48:00;33.89;36.35
69009;SHT31;56065;52.472;13.380;2023-06-01T13:50:25;33.43;36.85
69009;SHT31;56065;52.472;13.380;2023-06-01T13:52:51;33.67;36.75
69009;SHT31;56065;52.472;13.380;2023-06-01T13:55:19;33.78;36.32
69009;SHT31;56065;52.472;13.380;2023-06-01T13:57:45;33.89;36.52
69009;SHT31;56065;52.472;13.380;2023-06-01T14:00:11;33.90;36.36
69009;SHT31;56065;52.472;13.380;2023-06-01T14:02:37;34.07;36.72
69009;SHT31;56065;52.472;13.380;2023-06-01T14:05:02;33.37;36.59
69009;SHT31;56065;52.472;13.380;2023-06-01T14:07:29;32.86;37.21
69009;SHT31;56065;52.472;13.380;2023-06-01T14:09:54;33.22;37.02
69009;SHT31;56065;52.472;13.380;2023-06-01T14:12:20;33.53;37.11
69009;SHT31;56065;52.472;13.380;2023-06-01T14:14:45;33.54;36.52
69009;SHT31;56065;52.472;13.380;2023-06-01T14:17:11;33.71;36.59
69009;SHT31;56065;52.472;13.380;2023-06-01T14:19:36;33.96;36.57
69009;SHT31;56065;52.472;13.380;2023-06-01T14:22:01;33.98;36.42
69009;SHT31;56065;52.472;13.380;2023-06-01T14:24:27;33.25;36.32
69009;SHT31;56065;52.472;13.380;2023-06-01T14:26:52;32.92;36.85
69009;SHT31;56065;52.472;13.380;2023-06-01T14:29:18;33.02;36.66
69009;SHT31;56065;52.472;13.380;2023-06-01T14:31:43;32.98;36.94
69009;SHT31;56065;52.472;13.380;2023-06-01T14:34:08;33.05;36.51
69009;SHT31;56065;52.472;13.380;2023-06-01T14:36:34;32.62;37.10
69009;SHT31;56065;52.472;13.380;2023-06-01T14:38:59;32.54;37.11
69009;SHT31;56065;52.472;13.380;2023-06-01T14:41:25;32.44;37.26
69009;SHT31;56065;52.472;13.380;2023-06-01T14:43:50;32.40;36.41
69009;SHT31;56065;52.472;13.380;2023-06-01T14:46:16;31.98;37.32
69009;SHT31;56065;52.472;13.380;2023-06-01T14:48:41;31.83;37.51
69009;SHT31;56065;52.472;13.380;2023-06-01T14:51:06;31.79;37.85
69009;SHT31;56065;52.472;13.380;2023-06-01T14:53:32;31.66;37.97
69009;SHT31;56065;52.472;13.380;2023-06-01T14:55:57;31.66;38.07
69009;SHT31;56065;52.472;13.380;2023-06-01T14:58:22;31.46;37.44
69009;SHT31;56065;52.472;13.380;2023-06-01T15:00:48;31.38;37.44
69009;SHT31;56065;52.472;13.380;2023-06-01T15:03:14;31.35;38.06
69009;SHT31;56065;52.472;13.380;2023-06-01T15:05:40;31.19;38.18
69009;SHT31;56065;52.472;13.380;2023-06-01T15:08:06;30.92;37.68
69009;SHT31;56065;52.472;13.380;2023-06-01T15:10:32;30.78;37.98
69009;SHT31;56065;52.472;13.380;2023-06-01T15:12:58;30.77;38.73
69009;SHT31;56065;52.472;13.380;2023-06-01T15:15:23;30.41;39.24
69009;SHT31;56065;52.472;13.380;2023-06-01T15:17:49;30.02;39.45
69009;SHT31;56065;52.472;13.380;2023-06-01T15:20:14;30.13;39.61
69009;SHT31;56065;52.472;13.380;2023-06-01T15:22:40;30.19;39.71
69009;SHT31;56065;52.472;13.380;2023-06-01T15:25:06;30.02;39.97
69009;SHT31;56065;52.472;13.380;2023-06-01T15:27:31;30.06;40.03
69009;SHT31;56065;52.472;13.380;2023-06-01T15:29:57;29.98;40.77
69009;SHT31;56065;52.472;13.380;2023-06-01T15:32:22;29.74;40.45
69009;SHT31;56065;52.472;13.380;2023-06-01T15:34:47;29.24;39.99
69009;SHT31;56065;52.472;13.380;2023-06-01T15:37:13;28.82;40.18
69009;SHT31;56065;52.472;13.380;2023-06-01T15:39:39;28.16;42.00
69009;SHT31;56065;52.472;13.380;2023-06-01T15:42:06;27.57;42.57
69009;SHT31;56065;52.472;13.380;2023-06-01T15:44:32;27.17;43.09
69009;SHT31;56065;52.472;13.380;2023-06-01T15:46:58;26.68;44.18
69009;SHT31;56065;52.472;13.380;2023-06-01T15:49:23;26.47;44.44
69009;SHT31;56065;52.472;13.380;2023-06-01T15:51:49;26.23;44.58